Time;durP1;ratioP1;P1;durP2;ratioP2;P2;SDS_P1;SDS_P2;PMS_P1;PMS_P2;Temp;Humidity;BMP_temperature;BMP_pressure;BME280_temperature;BME280_humidity;BME280_pressure;Samples;Min_cycle;Max_cycle;Signal;HPM_P1;HPM_P2
2022/10/08 00:01:02;;;;;;;16.25;8.75;;;;;;;12.59;62.82;95375.31;4157401;28;20053;-63
2022/10/08 00:03:03;;;;;;;17.63;8.95;;;;;;;12.54;62.96;95378.41;4151607;28;20045;-64
2022/10/08 00:05:05;;;;;;;11.07;7.60;;;;;;;12.48;62.89;95381.63;4162402;28;20109;-65
2022/10/08 00:07:07;;;;;;;12.30;8.30;;;;;;;12.49;62.93;95376.22;4162846;28;20421;-63
2022/10/08 00:09:09;;;;;;;17.02;8.48;;;;;;;12.50;63.05;95382.31;4162555;28;20140;-63
2022/10/08 00:11:17;;;;;;;10.88;7.97;;;;;;;12.50;63.05;95372.63;4161984;28;20057;-64
2022/10/08 00:13:20;;;;;;;13.68;8.77;;;;;;;12.52;63.25;95372.47;4162195;28;20057;-64
2022/10/08 00:15:41;;;;;;;16.50;8.20;;;;;;;12.49;63.12;95365.69;4161145;28;20053;-65
2022/10/08 00:17:42;;;;;;;16.60;8.60;;;;;;;12.48;63.21;95371.94;4161828;28;20144;-65
2022/10/08 00:19:44;;;;;;;14.38;8.68;;;;;;;12.43;63.52;95362.88;4162370;28;20061;-63
2022/10/08 00:21:46;;;;;;;13.07;8.40;;;;;;;12.44;63.46;95367.16;4161086;28;20498;-63
2022/10/08 00:23:49;;;;;;;12.63;8.95;;;;;;;12.44;63.08;95361.91;4161721;28;20598;-63
2022/10/08 00:25:51;;;;;;;15.48;8.90;;;;;;;12.44;63.24;95362.72;4161426;28;20056;-64
2022/10/08 00:27:53;;;;;;;14.90;8.57;;;;;;;12.45;63.29;95363.53;4162067;28;20045;-63
2022/10/08 00:29:54;;;;;;;15.25;8.40;;;;;;;12.48;63.25;95361.44;4162051;28;20462;-64
2022/10/08 00:31:56;;;;;;;14.32;8.88;;;;;;;12.47;63.29;95361.56;4160778;28;20041;-64
2022/10/08 00:33:59;;;;;;;12.40;8.52;;;;;;;12.44;63.29;95361.91;4162419;28;20534;-65
2022/10/08 00:36:06;;;;;;;11.25;8.05;;;;;;;12.45;63.32;95363.53;4153980;28;20065;-63
2022/10/08 00:38:08;;;;;;;12.45;7.82;;;;;;;12.46;63.07;95355.50;4158380;28;20053;-64
2022/10/08 00:40:10;;;;;;;13.93;7.88;;;;;;;12.46;63.00;95359.94;4161636;28;20075;-64
2022/10/08 00:42:12;;;;;;;12.23;8.10;;;;;;;12.44;63.09;95352.22;4161442;28;20045;-64
2022/10/08 00:44:53;;;;;;;12.20;7.90;;;;;;;12.46;62.99;95342.38;4161086;28;20128;-64
2022/10/08 00:46:54;;;;;;;12.02;7.47;;;;;;;12.45;62.95;95345.13;4148447;28;20056;-64
2022/10/08 00:49:02;;;;;;;12.70;7.82;;;;;;;12.41;62.78;95343.78;4159157;28;20517;-65
2022/10/08 00:51:04;;;;;;;15.23;7.80;;;;;;;12.39;63.08;95346.59;4161462;28;20049;-64
2022/10/08 00:53:07;;;;;;;14.23;8.70;;;;;;;12.39;63.09;95345.75;4160060;28;20132;-64
2022/10/08 00:55:10;;;;;;;12.00;7.35;;;;;;;12.36;62.91;95339.00;4159117;28;20049;-64
2022/10/08 00:57:12;;;;;;;11.20;8.23;;;;;;;12.36;63.18;95339.00;4161082;28;20045;-64
2022/10/08 00:59:14;;;;;;;13.27;8.02;;;;;;;12.32;63.35;95337.66;4160544;28;20468;-65
2022/10/08 01:01:16;;;;;;;12.02;8.05;;;;;;;12.31;63.74;95340.47;4152624;28;20135;-63
2022/10/08 01:03:18;;;;;;;12.82;7.88;;;;;;;12.31;63.74;95340.47;4161057;28;20053;-63
2022/10/08 01:05:41;;;;;;;12.15;7.88;;;;;;;12.18;63.81;95331.19;4160959;28;20049;-65
2022/10/08 01:07:48;;;;;;;11.03;8.20;;;;;;;12.10;64.09;95331.13;4136610;28;20053;-63
2022/10/08 01:10:19;;;;;;;12.80;8.15;;;;;;;12.10;64.34;95331.13;4159970;28;20092;-64
2022/10/08 01:12:40;;;;;;;14.00;7.72;;;;;;;12.15;64.12;95320.97;4158004;28;20095;-64
2022/10/08 01:15:00;;;;;;;10.90;7.32;;;;;;;12.20;63.67;95316.09;4161802;28;20477;-64
2022/10/08 01:17:05;;;;;;;11.48;6.95;;;;;;;12.23;63.73;95312.31;4159061;28;20581;-63
2022/10/08 01:19:41;;;;;;;11.48;7.85;;;;;;;12.21;63.56;95311.66;4146662;28;20089;-63
2022/10/08 01:22:13;;;;;;;8.77;7.10;;;;;;;12.14;63.91;95303.56;4159163;28;20077;-63
2022/10/08 01:25:31;;;;;;;12.90;7.63;;;;;;;12.12;63.96;95310.78;4153327;28;20061;-64
2022/10/08 01:27:03;;;;;;;17.35;7.93;;;;;;;12.13;63.80;95306.34;4152665;28;20058;-64
2022/10/08 01:29:15;;;;;;;11.05;7.25;;;;;;;12.02;64.09;95304.78;4143527;28;20049;-64
2022/10/08 01:32:04;;;;;;;11.23;7.07;;;;;;;11.95;64.39;95306.38;4159583;28;20071;-64
2022/10/08 01:34:17;;;;;;;11.18;7.45;;;;;;;12.00;64.21;95294.47;4155389;28;20045;-64
2022/10/08 01:36:20;;;;;;;11.88;7.65;;;;;;;11.98;64.46;95303.44;4143898;28;20546;-63
2022/10/08 01:38:25;;;;;;;11.93;8.27;;;;;;;11.98;64.72;95291.16;4151738;28;20498;-62
2022/10/08 01:40:32;;;;;;;11.07;7.90;;;;;;;11.99;64.53;95298.03;4142863;28;20679;-65
2022/10/08 01:42:35;;;;;;;14.07;8.13;;;;;;;11.99;64.59;95286.72;4190521;28;20053;-63
2022/10/08 01:44:45;;;;;;;12.73;8.60;;;;;;;11.94;64.04;95288.97;4158877;28;20050;-64
2022/10/08 01:46:49;;;;;;;11.38;7.72;;;;;;;11.87;64.78;95288.72;4158561;28;20133;-64
2022/10/08 01:48:50;;;;;;;;;;;;;;;11.80;65.26;95288.50;4160621;28;20476;-64
2022/10/08 01:51:02;;;;;;;10.95;7.25;;;;;;;11.74;65.10;95286.50;4159579;28;19928;-65
2022/10/08 01:53:08;;;;;;;9.63;7.07;;;;;;;11.66;65.39;95284.63;4159332;28;20606;-64
2022/10/08 01:55:21;;;;;;;10.05;7.05;;;;;;;11.38;65.43;95291.78;4160145;28;20096;-63
2022/10/08 01:57:23;;;;;;;10.75;6.85;;;;;;;11.09;66.56;95296.38;4159943;28;20068;-63
2022/10/08 01:59:38;;;;;;;11.55;6.80;;;;;;;10.88;66.98;95305.31;4160184;28;20140;-61
2022/10/08 02:01:59;;;;;;;9.40;6.70;;;;;;;10.77;67.51;95295.03;4156030;28;20050;-62
2022/10/08 02:06:22;;;;;;;13.05;6.78;;;;;;;10.72;68.19;95298.09;4162608;28;20060;-64
2022/10/08 02:08:24;;;;;;;9.35;6.30;;;;;;;10.84;68.09;95293.47;4164481;28;20085;-65
2022/10/08 02:10:25;;;;;;;9.75;6.63;;;;;;;10.99;67.51;95299.03;4162523;28;20057;-65
2022/10/08 02:12:27;;;;;;;16.67;7.68;;;;;;;11.12;67.14;95296.06;4164546;28;20425;-63
2022/10/08 02:14:31;;;;;;;11.23;6.82;;;;;;;11.23;66.38;95293.25;4164460;28;20103;-64
2022/10/08 02:16:33;;;;;;;9.73;6.88;;;;;;;11.33;66.31;95294.00;4145267;28;20627;-63
2022/10/08 02:18:41;;;;;;;10.43;7.18;;;;;;;11.41;65.98;95295.88;4163139;28;20050;-57
2022/10/08 02:20:54;;;;;;;12.20;6.53;;;;;;;11.45;65.66;95298.06;4163039;28;20478;-63
2022/10/08 02:23:05;;;;;;;8.98;6.80;;;;;;;11.56;65.32;95296.19;4163361;28;20542;-64
2022/10/08 02:25:30;;;;;;;12.07;7.18;;;;;;;11.59;65.09;95290.63;4163856;28;20111;-66
2022/10/08 02:27:53;;;;;;;12.57;6.85;;;;;;;11.54;65.56;95288.47;4164197;28;20060;-65
2022/10/08 02:30:15;;;;;;;15.70;7.30;;;;;;;11.50;65.40;95288.91;4162306;28;20049;-65
2022/10/08 02:32:21;;;;;;;15.02;6.50;;;;;;;11.51;65.74;95287.94;4164175;28;20088;-64
2022/10/08 02:34:28;;;;;;;10.63;7.38;;;;;;;11.45;65.83;95295.44;4162585;28;20501;-65
2022/10/08 02:36:34;;;;;;;10.95;6.05;;;;;;;11.37;65.54;95289.28;4152040;28;20088;-63
2022/10/08 02:38:39;;;;;;;8.15;6.45;;;;;;;11.25;65.52;95293.94;4162188;28;20045;-63
2022/10/08 02:40:44;;;;;;;9.95;6.47;;;;;;;11.24;65.90;95294.91;4161623;28;20081;-63
2022/10/08 02:42:51;;;;;;;10.50;7.05;;;;;;;11.28;66.10;95293.63;4161726;28;20064;-63
2022/10/08 02:44:58;;;;;;;8.55;6.57;;;;;;;11.34;65.94;95292.22;4161916;28;20073;-65
2022/10/08 02:47:03;;;;;;;12.30;6.53;;;;;;;11.38;65.92;95283.06;4160543;28;20284;-65
2022/10/08 02:49:09;;;;;;;14.82;6.57;;;;;;;11.42;65.62;95287.88;4163113;28;20403;-65
2022/10/08 02:51:13;;;;;;;13.15;6.90;;;;;;;11.47;65.56;95282.19;4149548;28;20041;-64
2022/10/08 02:53:17;;;;;;;12.35;6.65;;;;;;;11.47;65.46;95276.94;4163242;28;20111;-63
2022/10/08 02:55:43;;;;;;;10.35;6.82;;;;;;;11.50;65.50;95273.16;4161709;28;20518;-59
2022/10/08 02:57:52;;;;;;;9.80;6.93;;;;;;;11.52;65.69;95277.28;4153931;28;20084;-54
2022/10/08 02:59:54;;;;;;;12.25;6.78;;;;;;;11.54;65.35;95285.03;4160256;28;20276;-57
2022/10/08 03:02:04;;;;;;;12.45;7.18;;;;;;;11.53;65.27;95283.34;4156438;28;20409;-62
2022/10/08 03:04:10;;;;;;;14.20;7.32;;;;;;;11.48;65.64;95287.25;4162028;28;20418;-62
2022/10/08 03:06:12;;;;;;;12.65;7.07;;;;;;;11.43;65.83;95292.13;4162788;28;20056;-65
2022/10/08 03:08:14;;;;;;;12.15;6.63;;;;;;;11.37;65.98;95294.53;4163436;28;20147;-64
2022/10/08 03:10:17;;;;;;;8.55;6.25;;;;;;;11.35;65.92;95286.81;4161988;28;20107;-62
2022/10/08 03:12:19;;;;;;;10.90;6.13;;;;;;;11.31;66.12;95285.44;4163615;28;20494;-65
2022/10/08 03:14:23;;;;;;;12.30;7.10;;;;;;;11.30;66.18;95280.38;4163248;28;20052;-59
2022/10/08 03:16:31;;;;;;;10.73;7.25;;;;;;;11.31;66.24;95288.06;4161749;28;20069;-58
2022/10/08 03:18:33;;;;;;;15.50;6.43;;;;;;;11.29;65.95;95282.16;4162609;28;20136;-57
2022/10/08 03:20:41;;;;;;;11.40;8.38;;;;;;;11.35;66.74;95281.56;4162001;28;20594;-57
2022/10/08 03:22:43;;;;;;;15.85;9.02;;;;;;;11.38;66.60;95286.53;4162285;28;20127;-58
2022/10/08 03:24:45;;;;;;;14.07;8.98;;;;;;;11.43;66.83;95283.44;4154460;28;20048;-58
2022/10/08 03:26:47;;;;;;;20.42;12.85;;;;;;;11.50;66.82;95279.25;4163010;28;20058;-57
2022/10/08 03:28:51;;;;;;;14.93;7.28;;;;;;;11.50;65.93;95276.63;4162997;28;20057;-55
2022/10/08 03:30:53;;;;;;;14.95;6.93;;;;;;;11.48;65.61;95278.56;4161128;28;20486;-58
2022/10/08 03:32:55;;;;;;;11.07;7.53;;;;;;;11.46;65.76;95283.97;4162269;28;20081;-55
2022/10/08 03:34:56;;;;;;;13.85;7.32;;;;;;;11.44;65.75;95279.84;4161734;28;20049;-58
2022/10/08 03:36:58;;;;;;;10.55;7.28;;;;;;;11.42;65.71;95281.78;4163446;28;20482;-57
2022/10/08 03:39:00;;;;;;;8.48;6.57;;;;;;;11.38;65.58;95275.19;4162110;28;20136;-58
2022/10/08 03:41:01;;;;;;;11.13;7.22;;;;;;;11.35;65.64;95278.13;4162853;28;20049;-57
2022/10/08 03:43:03;;;;;;;10.35;7.57;;;;;;;11.34;65.84;95273.84;4163091;28;20049;-58
2022/10/08 03:45:05;;;;;;;12.63;6.88;;;;;;;11.31;66.18;95279.38;4162339;28;20167;-59
2022/10/08 03:47:07;;;;;;;12.25;6.97;;;;;;;11.22;66.41;95274.06;4162390;28;20049;-57
2022/10/08 03:49:09;;;;;;;15.70;7.50;;;;;;;11.11;66.65;95273.47;4161929;28;20145;-59
2022/10/08 03:51:12;;;;;;;9.73;7.10;;;;;;;11.07;66.50;95278.97;4160907;28;20390;-56
2022/10/08 03:53:13;;;;;;;9.48;6.85;;;;;;;11.07;66.93;95280.78;4161934;28;20137;-63
2022/10/08 03:55:15;;;;;;;12.70;6.47;;;;;;;11.09;66.61;95272.78;4162581;28;20045;-65
2022/10/08 03:57:17;;;;;;;11.25;6.82;;;;;;;11.11;66.43;95268.22;4162701;28;20541;-63
2022/10/08 03:59:18;;;;;;;9.00;6.60;;;;;;;11.09;66.38;95272.78;4162934;28;20057;-61
2022/10/08 04:01:21;;;;;;;12.05;7.18;;;;;;;10.97;66.85;95272.16;4161177;28;20521;-63
2022/10/08 04:03:22;;;;;;;13.38;6.72;;;;;;;10.88;67.21;95271.22;4155329;28;20153;-66
2022/10/08 04:05:24;;;;;;;9.27;7.10;;;;;;;10.80;67.20;95282.47;4158381;28;20132;-63
2022/10/08 04:07:26;;;;;;;16.70;7.18;;;;;;;10.78;67.33;95284.41;4159391;28;20101;-63
2022/10/08 04:09:28;;;;;;;17.25;7.10;;;;;;;10.80;67.21;95277.22;4158267;28;20072;-66
2022/10/08 04:11:29;;;;;;;12.10;7.22;;;;;;;10.87;67.08;95266.97;4162343;28;20050;-67
2022/10/08 04:13:31;;;;;;;11.63;7.20;;;;;;;10.91;66.90;95273.59;4162704;28;20161;-66
2022/10/08 04:15:33;;;;;;;10.55;6.65;;;;;;;10.96;66.85;95276.56;4160616;28;20168;-63
2022/10/08 04:17:35;;;;;;;9.25;6.35;;;;;;;10.98;66.58;95272.00;4162594;28;20049;-65
2022/10/08 04:19:37;;;;;;;13.10;6.90;;;;;;;10.98;66.65;95274.63;4162023;28;20136;-66
2022/10/08 04:21:38;;;;;;;14.65;6.93;;;;;;;11.00;66.31;95272.69;4162512;28;20133;-65
2022/10/08 04:23:41;;;;;;;11.95;7.30;;;;;;;10.99;66.34;95278.91;4162502;28;20059;-64
2022/10/08 04:25:53;;;;;;;11.98;7.22;;;;;;;10.98;67.05;95276.44;4161276;28;20079;-64
2022/10/08 04:27:54;;;;;;;11.27;7.07;;;;;;;10.98;66.88;95274.63;4132623;28;20073;-64
2022/10/08 04:29:56;;;;;;;14.98;6.97;;;;;;;10.99;66.66;95278.06;4154209;28;20124;-63
2022/10/08 04:31:58;;;;;;;12.82;6.65;;;;;;;10.99;66.46;95270.22;4161249;28;20125;-58
2022/10/08 04:33:59;;;;;;;19.13;6.90;;;;;;;10.99;66.52;95280.69;4162067;28;20057;-58
2022/10/08 04:36:06;;;;;;;9.38;7.03;;;;;;;10.94;66.88;95275.06;4160935;28;20049;-66
2022/10/08 04:38:08;;;;;;;10.52;6.35;;;;;;;10.95;67.09;95274.09;4162475;28;20050;-63
2022/10/08 04:40:10;;;;;;;10.40;7.20;;;;;;;10.94;66.90;95268.03;4161896;28;20103;-64
2022/10/08 04:42:11;;;;;;;19.38;8.40;;;;;;;10.95;67.13;95269.69;4160534;28;20140;-63
2022/10/08 04:44:13;;;;;;;14.57;8.00;;;;;;;10.94;67.13;95272.47;4152042;28;20120;-64
2022/10/08 04:46:18;;;;;;;14.25;8.77;;;;;;;10.95;66.83;95269.69;4160623;28;20042;-66
2022/10/08 04:48:19;;;;;;;20.42;8.75;;;;;;;10.93;66.62;95270.81;4161175;28;20079;-65
2022/10/08 04:50:21;;;;;;;14.52;8.40;;;;;;;10.96;66.83;95268.72;4162005;28;20144;-65
2022/10/08 04:52:23;;;;;;;14.43;7.93;;;;;;;10.96;67.06;95273.94;4162206;28;20053;-67
2022/10/08 04:54:24;;;;;;;13.02;7.57;;;;;;;10.95;66.70;95280.19;4160737;28;20295;-65
2022/10/08 04:56:29;;;;;;;13.70;7.53;;;;;;;10.95;66.48;95279.34;4161436;28;20056;-64
2022/10/08 04:58:30;;;;;;;11.98;7.45;;;;;;;10.95;66.79;95274.09;4158613;28;20143;-63
2022/10/08 05:00:34;;;;;;;13.23;8.00;;;;;;;10.95;66.81;95280.19;4160498;28;20057;-62
2022/10/08 05:02:36;;;;;;;19.60;8.43;;;;;;;10.98;66.76;95273.81;4161271;28;20137;-65
2022/10/08 05:04:37;;;;;;;17.48;8.13;;;;;;;10.97;66.71;95275.63;4156892;28;20076;-66
2022/10/08 05:06:39;;;;;;;14.18;7.70;;;;;;;10.94;66.57;95278.50;4158479;28;20050;-65
2022/10/08 05:08:42;;;;;;;24.52;8.48;;;;;;;10.90;66.90;95282.41;4161469;28;20078;-64
2022/10/08 05:10:48;;;;;;;20.00;8.03;;;;;;;10.91;66.92;95280.63;4160856;28;20589;-65
2022/10/08 05:12:49;;;;;;;13.38;8.63;;;;;;;10.90;66.79;95282.41;4161683;28;20136;-63
2022/10/08 05:14:51;;;;;;;16.25;8.68;;;;;;;10.94;66.84;95278.50;4157661;28;20053;-66
2022/10/08 05:16:53;;;;;;;17.88;8.40;;;;;;;10.95;66.58;95277.56;4149537;28;20045;-64
2022/10/08 05:18:55;;;;;;;12.95;8.60;;;;;;;11.01;66.79;95278.75;4161261;28;20052;-65
2022/10/08 05:21:01;;;;;;;15.77;8.43;;;;;;;11.03;66.63;95276.81;4161538;28;20085;-65
2022/10/08 05:23:03;;;;;;;15.77;8.82;;;;;;;11.02;66.57;95276.00;4149700;28;20045;-63
2022/10/08 05:25:05;;;;;;;13.60;8.73;;;;;;;11.09;66.72;95276.22;4153092;28;20045;-66
2022/10/08 05:27:07;;;;;;;17.02;9.13;;;;;;;11.21;66.24;95282.09;4161702;28;20064;-63
2022/10/08 05:29:09;;;;;;;14.57;9.20;;;;;;;11.25;66.41;95278.19;4161993;28;20684;-65
2022/10/08 05:31:12;;;;;;;13.75;8.98;;;;;;;11.32;66.31;95283.69;4155997;28;20455;-64
2022/10/08 05:33:13;;;;;;;16.40;9.07;;;;;;;11.39;66.26;95282.09;4153947;28;20045;-64
2022/10/08 05:35:15;;;;;;;17.27;10.02;;;;;;;11.56;65.93;95278.63;4162018;28;20053;-65
2022/10/08 05:37:17;;;;;;;20.02;10.00;;;;;;;11.68;65.30;95284.50;4163442;28;20827;-64
2022/10/08 05:39:19;;;;;;;15.18;9.77;;;;;;;11.81;64.73;95282.31;4165210;28;20140;-64
2022/10/08 05:41:23;;;;;;;15.80;9.50;;;;;;;11.91;64.16;95284.03;4164602;28;20049;-64
2022/10/08 05:43:25;;;;;;;14.07;9.35;;;;;;;12.00;64.09;95286.59;4165205;28;20541;-66
2022/10/08 05:45:26;;;;;;;17.00;9.13;;;;;;;12.05;63.86;95286.13;4163375;28;20077;-65
2022/10/08 05:47:28;;;;;;;18.50;9.90;;;;;;;12.09;64.15;95287.47;4165099;28;20541;-65
2022/10/08 05:49:30;;;;;;;16.73;9.55;;;;;;;12.06;64.12;95298.25;4165012;28;20053;-66
2022/10/08 05:51:31;;;;;;;21.10;9.57;;;;;;;12.06;64.38;95287.75;4164841;28;20045;-65
2022/10/08 05:53:35;;;;;;;23.42;10.52;;;;;;;12.17;63.93;95284.88;4164670;28;20076;-65
2022/10/08 05:55:37;;;;;;;16.13;10.00;;;;;;;12.23;63.74;95280.81;4162974;28;20045;-67
2022/10/08 05:57:39;;;;;;;16.90;10.23;;;;;;;12.35;63.36;95276.94;4164126;28;20498;-64
2022/10/08 05:59:40;;;;;;;20.30;10.30;;;;;;;12.43;63.29;95278.78;4164269;28;20231;-63
2022/10/08 06:01:42;;;;;;;15.02;9.50;;;;;;;12.47;63.27;95278.31;4163215;28;20063;-64
2022/10/08 06:03:50;;;;;;;15.10;9.30;;;;;;;12.57;63.19;95280.84;4161261;28;20079;-64
2022/10/08 06:05:53;;;;;;;18.40;10.20;;;;;;;12.62;62.88;95283.81;4157431;28;20081;-66
2022/10/08 06:07:56;;;;;;;16.17;9.88;;;;;;;12.73;62.94;95279.25;4163832;28;20080;-66
2022/10/08 06:09:58;;;;;;;19.85;10.00;;;;;;;12.81;62.71;95277.47;4164839;28;20140;-66
2022/10/08 06:11:59;;;;;;;24.58;11.27;;;;;;;12.85;62.81;95275.38;4164087;28;20133;-66
2022/10/08 06:14:01;;;;;;;21.58;10.52;;;;;;;12.92;62.40;95271.09;4164586;28;20049;-65
2022/10/08 06:16:06;;;;;;;23.25;10.23;;;;;;;12.92;62.15;95273.75;4162898;28;20469;-65
2022/10/08 06:18:08;;;;;;;19.50;10.85;;;;;;;12.95;62.01;95273.44;4164417;28;20435;-64
2022/10/08 06:20:09;;;;;;;19.70;9.75;;;;;;;12.91;62.64;95280.00;4164530;28;20055;-64
2022/10/08 06:22:11;;;;;;;17.50;10.65;;;;;;;12.97;62.67;95273.25;4164802;28;20053;-66
2022/10/08 06:24:13;;;;;;;15.10;10.18;;;;;;;12.96;62.58;95276.88;4164411;28;20148;-65
2022/10/08 06:26:16;;;;;;;14.80;10.63;;;;;;;12.97;62.44;95284.63;4164003;28;20041;-65
2022/10/08 06:28:18;;;;;;;13.73;9.45;;;;;;;12.99;62.62;95285.28;4164542;28;20084;-65
2022/10/08 06:30:20;;;;;;;16.73;10.38;;;;;;;13.07;62.69;95284.47;4152580;28;20069;-65
2022/10/08 06:32:21;;;;;;;22.23;11.20;;;;;;;13.11;62.08;95286.63;4161821;28;20071;-66
2022/10/08 06:34:23;;;;;;;17.10;10.10;;;;;;;13.20;62.01;95278.75;4163520;28;20081;-67
2022/10/08 06:36:26;;;;;;;20.17;10.95;;;;;;;13.36;61.51;95277.97;4159891;28;20124;-67
2022/10/08 06:38:28;;;;;;;20.33;10.73;;;;;;;13.41;61.66;95276.53;4162953;28;20053;-66
2022/10/08 06:40:32;;;;;;;18.60;9.73;;;;;;;13.51;61.33;95282.47;4163282;28;20058;-67
2022/10/08 06:42:33;;;;;;;14.93;9.20;;;;;;;13.55;61.13;95282.13;4164075;28;20059;-64
2022/10/08 06:44:35;;;;;;;14.93;10.55;;;;;;;13.51;61.18;95282.47;4164162;28;20136;-58
2022/10/08 06:46:37;;;;;;;17.60;10.02;;;;;;;13.52;61.33;95276.19;4162192;28;20129;-56
2022/10/08 06:48:38;;;;;;;14.13;9.45;;;;;;;13.55;61.36;95277.72;4162968;28;20053;-60
2022/10/08 06:50:40;;;;;;;17.73;10.70;;;;;;;13.64;60.81;95271.47;4163372;28;20076;-58
2022/10/08 06:52:42;;;;;;;17.60;9.50;;;;;;;13.77;61.18;95280.69;4160242;28;20067;-61
2022/10/08 06:54:44;;;;;;;14.18;11.13;;;;;;;13.87;60.70;95271.63;4164173;28;20050;-58
2022/10/08 06:56:46;;;;;;;17.88;10.77;;;;;;;13.80;60.54;95277.72;4163652;28;20466;-60
2022/10/08 06:58:48;;;;;;;18.90;10.38;;;;;;;13.74;60.48;95279.19;4162849;28;20413;-59
2022/10/08 07:01:04;;;;;;;19.25;10.15;;;;;;;13.71;60.80;95282.16;4160988;28;20088;-57
2022/10/08 07:03:05;;;;;;;18.02;10.52;;;;;;;13.71;60.64;95276.88;4163687;28;20045;-60
2022/10/08 07:05:07;;;;;;;16.50;10.55;;;;;;;13.59;60.79;95276.38;4163083;28;20251;-60
2022/10/08 07:07:09;;;;;;;23.75;11.88;;;;;;;13.47;60.93;95283.78;4156586;28;20124;-63
2022/10/08 07:09:12;;;;;;;17.25;12.05;;;;;;;13.52;61.38;95284.09;4163635;28;20085;-62
2022/10/08 07:11:16;;;;;;;16.70;11.63;;;;;;;13.51;61.01;95286.91;4163578;28;20092;-60
2022/10/08 07:13:18;;;;;;;16.30;12.70;;;;;;;13.38;61.50;95283.91;4163411;28;20133;-58
2022/10/08 07:15:19;;;;;;;16.13;11.75;;;;;;;13.45;61.53;95284.94;4161247;28;20748;-58
2022/10/08 07:17:21;;;;;;;16.88;11.15;;;;;;;13.66;61.22;95279.19;4162929;28;20132;-60
2022/10/08 07:19:23;;;;;;;21.60;11.18;;;;;;;13.95;60.66;95276.06;4162854;28;20137;-57
2022/10/08 07:21:26;;;;;;;16.80;11.45;;;;;;;14.20;59.64;95276.88;4162023;28;20128;-61
2022/10/08 07:23:28;;;;;;;24.70;12.50;;;;;;;14.06;59.81;95277.53;4161520;28;20049;-59
2022/10/08 07:25:29;;;;;;;25.50;11.73;;;;;;;13.84;60.22;95277.22;4163338;28;20132;-60
2022/10/08 07:27:31;;;;;;;15.57;11.73;;;;;;;13.59;61.23;95276.38;4163279;28;20141;-60
2022/10/08 07:29:33;;;;;;;24.17;12.55;;;;;;;13.66;61.22;95271.31;4163450;28;20733;-59
2022/10/08 07:31:35;;;;;;;18.92;12.13;;;;;;;13.85;60.73;95275.41;4161266;28;20052;-59
2022/10/08 07:33:39;;;;;;;18.40;11.38;;;;;;;14.01;60.04;95271.94;4162809;28;20060;-58
2022/10/08 07:35:41;;;;;;;19.45;11.35;;;;;;;14.16;59.88;95277.38;4163301;28;20057;-58
2022/10/08 07:37:43;;;;;;;21.58;11.77;;;;;;;14.21;59.82;95278.50;4161913;28;20049;-59
2022/10/08 07:39:44;;;;;;;18.38;11.77;;;;;;;14.31;59.30;95278.31;4163221;28;20049;-66
2022/10/08 07:41:47;;;;;;;18.90;12.20;;;;;;;14.51;58.94;95263.75;4162462;28;20072;-64
2022/10/08 07:43:53;;;;;;;20.40;13.13;;;;;;;14.72;58.75;95265.88;4163133;28;20064;-65
2022/10/08 07:45:55;;;;;;;25.33;13.23;;;;;;;14.77;58.33;95268.00;4161769;28;20081;-66
2022/10/08 07:47:57;;;;;;;15.13;11.60;;;;;;;14.81;58.27;95266.66;4163017;28;20052;-66
2022/10/08 07:49:58;;;;;;;21.58;13.02;;;;;;;14.91;58.18;95271.75;4163047;28;20123;-69
2022/10/08 07:52:00;;;;;;;19.33;12.82;;;;;;;15.06;57.47;95263.94;4156061;28;20136;-68
2022/10/08 07:54:04;;;;;;;25.50;13.50;;;;;;;15.04;57.37;95264.09;4162527;28;20061;-67
2022/10/08 07:56:07;;;;;;;17.27;13.10;;;;;;;15.25;57.34;95258.22;4160608;28;20077;-64
2022/10/08 07:58:08;;;;;;;21.23;12.73;;;;;;;15.50;57.02;95255.41;4145493;28;20056;-65
2022/10/08 08:00:11;;;;;;;19.50;13.02;;;;;;;15.74;56.52;95252.63;4160769;28;20136;-65
2022/10/08 08:02:12;;;;;;;22.63;12.68;;;;;;;15.84;56.03;95256.84;4162751;28;20045;-65
2022/10/08 08:04:14;;;;;;;21.13;13.50;;;;;;;15.89;55.22;95251.84;4162918;28;20092;-65
2022/10/08 08:06:16;;;;;;;18.35;12.40;;;;;;;16.02;55.39;95253.88;4161991;28;20049;-65
2022/10/08 08:08:17;;;;;;;19.88;13.63;;;;;;;16.21;55.30;95257.81;4150753;28;20049;-66
2022/10/08 08:10:19;;;;;;;22.45;13.98;;;;;;;16.37;54.51;95247.09;4162004;28;20073;-67
2022/10/08 08:12:21;;;;;;;18.73;12.95;;;;;;;16.41;54.27;95250.19;4162793;28;20213;-67
2022/10/08 08:14:22;;;;;;;20.63;13.15;;;;;;;16.56;54.24;95251.00;4163008;28;20075;-67
2022/10/08 08:16:26;;;;;;;29.38;14.07;;;;;;;16.71;54.14;95248.34;4159516;28;20045;-66
2022/10/08 08:18:29;;;;;;;18.05;12.85;;;;;;;16.78;53.46;95246.63;4162758;28;20084;-66
2022/10/08 08:20:30;;;;;;;19.65;12.15;;;;;;;16.74;52.86;95250.66;4162368;28;20136;-64
2022/10/08 08:22:32;;;;;;;16.88;11.85;;;;;;;16.41;53.20;95240.41;4162537;28;20049;-66
2022/10/08 08:24:34;;;;;;;14.57;11.48;;;;;;;16.04;54.65;95244.75;4162238;28;20498;-66
2022/10/08 08:26:37;;;;;;;17.73;11.52;;;;;;;16.05;54.71;95241.13;4162393;28;20053;-65
2022/10/08 08:28:40;;;;;;;24.50;12.35;;;;;;;16.22;54.84;95244.44;4161874;28;20464;-65
2022/10/08 08:30:42;;;;;;;18.98;11.30;;;;;;;16.53;54.57;95238.97;4160520;28;20050;-70
2022/10/08 08:32:43;;;;;;;18.08;12.23;;;;;;;16.76;53.17;95236.22;4161548;28;20053;-68
2022/10/08 08:34:46;;;;;;;16.02;9.18;;;;;;;16.83;53.05;95232.88;4161826;28;20572;-65
2022/10/08 08:36:49;;;;;;;18.15;9.73;;;;;;;16.97;53.20;95237.31;4157283;28;20486;-63
2022/10/08 08:38:51;;;;;;;15.20;9.68;;;;;;;16.65;53.61;95234.06;4143813;28;20204;-65
2022/10/08 08:40:56;;;;;;;15.25;9.65;;;;;;;16.71;53.60;95240.41;4161261;28;20046;-68
2022/10/08 08:42:57;;;;;;;12.50;9.05;;;;;;;16.90;53.59;95224.00;4161564;28;20148;-66
2022/10/08 08:45:12;;;;;;;16.15;10.27;;;;;;;17.16;52.84;95225.31;4161870;28;20236;-65
2022/10/08 08:47:38;;;;;;;17.17;10.55;;;;;;;17.41;52.52;95220.50;4160907;28;20068;-70
2022/10/08 08:49:55;;;;;;;21.55;10.23;;;;;;;17.59;51.36;95220.06;4157107;28;20108;-68
2022/10/08 08:51:58;;;;;;;13.63;9.10;;;;;;;17.77;51.22;95219.63;4161107;28;20045;-66
2022/10/08 08:54:00;;;;;;;;;;;;;;;17.83;50.64;95218.88;4160809;28;20132;-66
2022/10/08 08:56:05;;;;;;;17.50;9.73;;;;;;;17.67;51.11;95219.94;4161648;28;20019;-66
2022/10/08 08:58:33;;;;;;;15.25;9.07;;;;;;;17.69;50.81;95217.09;4162436;28;20037;-64
2022/10/08 09:00:39;;;;;;;12.50;9.35;;;;;;;17.67;51.12;95216.47;4160258;28;20141;-64
2022/10/08 09:03:02;;;;;;;15.85;8.48;;;;;;;17.83;50.87;95213.56;4160789;28;20128;-67
2022/10/08 09:05:07;;;;;;;11.80;8.35;;;;;;;17.31;51.19;95212.84;4160482;28;20088;-65
2022/10/08 09:07:17;;;;;;;12.40;8.10;;;;;;;17.21;51.91;95212.38;4160521;28;20048;-65
2022/10/08 09:09:30;;;;;;;13.60;8.70;;;;;;;17.22;51.77;95216.63;4151379;28;20120;-66
2022/10/08 09:11:32;;;;;;;13.00;8.25;;;;;;;17.29;52.03;95206.09;4159751;28;20132;-66
2022/10/08 09:13:57;;;;;;;11.48;7.90;;;;;;;17.58;51.73;95205.19;4160861;28;20057;-68
2022/10/08 09:15:59;;;;;;;9.00;6.25;;;;;;;17.87;50.06;95206.88;4160339;28;20052;-67
2022/10/08 09:18:02;;;;;;;11.25;8.32;;;;;;;17.63;50.15;95200.13;4161594;28;20512;-67
2022/10/08 09:20:04;;;;;;;10.35;7.75;;;;;;;17.59;50.47;95199.69;4159856;28;20081;-66
2022/10/08 09:22:34;;;;;;;14.75;6.57;;;;;;;17.81;49.32;95197.03;4161418;28;20103;-65
2022/10/08 09:24:36;;;;;;;23.83;10.13;;;;;;;17.98;48.53;95195.75;4152609;28;20086;-67
2022/10/08 09:26:37;;;;;;;11.43;7.05;;;;;;;18.10;48.34;95190.75;4161577;28;20109;-66
2022/10/08 09:28:39;;;;;;;12.07;6.00;;;;;;;18.31;48.42;95195.16;4161898;28;20152;-66
2022/10/08 09:30:45;;;;;;;9.57;6.03;;;;;;;18.55;47.99;95193.06;4160020;28;20081;-66
2022/10/08 09:32:47;;;;;;;12.68;6.22;;;;;;;18.75;47.11;95186.00;4148791;28;20056;-67
2022/10/08 09:34:49;;;;;;;10.87;7.00;;;;;;;18.72;47.08;95182.94;4162023;28;20092;-66
2022/10/08 09:36:53;;;;;;;16.30;8.60;;;;;;;18.79;46.98;95181.13;4161617;28;20279;-66
2022/10/08 09:38:58;;;;;;;14.75;7.95;;;;;;;18.76;46.80;95178.88;4160184;28;20056;-64
2022/10/08 09:41:06;;;;;;;10.48;6.57;;;;;;;18.85;46.81;95168.94;4155532;28;20128;-67
2022/10/08 09:43:13;;;;;;;7.93;5.18;;;;;;;19.07;45.37;95175.72;4162007;28;20390;-65